CanjetBLOCKVirtuelBLOCKQcBLOCKBLOCKBLOCKBLOCKBLOCKBLOCKBLOCKBLOCKBLOCKBLOCKBLOCKvolsBLOCKavecBLOCKFS-kACARS2020-02-20BLOCK06colon18am

volsBLOCKBLOCKBLOCKBLOCKBLOCKpilotesBLOCKBLOCKBLOCKBLOCKBLOCKBLOCKBLOCKBLOCKtypeBLOCKBLOCKdepBLOCKBLOCKarrBLOCKBLOCKBLOCKBLOCKBLOCKaltBLOCKBLOCKBLOCKBLOCKBLOCKgsBLOCKBLOCKBLOCKBLOCKstatut

CJA7200AndréBLOCKLB77LKATL-FAOR34908ft496kts10colon54am










BLOCKAppuyerBLOCKsurBLOCKF5BLOCKpourBLOCKactualiserBLOCKBLOCKBLOCKMiseBLOCKaBLOCKjourcolonBLOCK06colon18colon50amCanjetBLOCKvirtuelBLOCKQC

Tour du Canada

Publié par Michel Ayotte le 2020-02-09

 


 



 



Canjetvirtuel-Québec a le plaisir de vous proposer 15 étapes de vols pour le tour du Canada.

Vous gérez vos vols avec Kacar. Il n'y a pas de limite de temps.

Vous pouvez être sur Vatsim ou pas.

Surveillez vos courriels pour les 15 étapes.

Bon vol à tous.

 

Un merci spécial à Stéphane Gaouette pour son initiative et son implication.

Vous trouverez votre place comme pilote chez nous!


Microsoft flight sim 2020

Publié par Yvan Roy le 2019-06-25

 

Microsoft flight simulator 2020 encore plus fort sera disponible pour votre PC au début 2020 .

 

https://www.flightsimulator.com/
 

                                                   

 




Bienvenue chez Canjetvirtuel-Q

Publié par Michel Ayotte le 2013-06-14

 

Canjetvirtuel-Québec est une compagnie aérienne virtuelle qui a été fondée par 2 passionnés de la simulation de vol.

Elle est opérée avec les Boeing 737. Exceptionnelement et pour votre plaisir les Boeing 747,757,767 et 777 sont autorisés pour des vols de plus de 1,5 heure.

Ces appareils pouvant faire des vols cargos ou des vols passagers,que ce soit au Canada, Europe, États-Unis, Mexique et Caraïbes.

Vous trouverez votre place comme pilote chez nous!



Avis

Aux fins de la simulation de vol seulement. CanjetVirtuel Québec n'est en aucun cas affilié avec n'importe quelle compagnie aérienne du monde réel. CanjetVirtuel Québec est un site √† but non lucratif gérée par des amateurs de simulation de vol. Toutes les images sont la propriété exclusive de leurs propriétaires respectifs.
| propulsé par phpVMS, ¬© 2013-2019.

Notice

For flight simulation purposes only. CanjetVirtuel Quebec is in no way affiliated with any real world airline. CanjetVirtuel Quebec is a non-profit site run by flight simulation enthusiasts. All images are the sole property of their respective owners.
| powered by phpVMS, © 2013-2019.

Affiliations

Vatsim

Les statistiques du site

Nombre de pilotes: 16
Total des vols effectués: 5389
Trajets disponibles: 543
Passagers transportés: 958649
Total des heures de vol: 16933
Distance totale (NM): 6600438
Pilotes en ligne: 0

Nouvelles

Tour du Canada
02/09/2020
Microsoft flight sim 2020
06/25/2019
Bienvenue chez Canjetvirtuel-Q
06/14/2013

METAR

CYHZ 201100Z 31013G18KT 15SM SCT031 M11/M15 A3012 RMK SC3 SLP212

CYQB 201100Z 27009KT 15SM FEW012 FEW032 M23/M27 A3037 RMK SF1SC1 SF TR SLP293

CYUL 201100Z 33004KT 15SM BKN064 M15/M20 A3042 RMK SC7 SLP307

CYYZ 201100Z 28008KT 190V290 15SM BKN051 M08/M13 A3044 RMK SC6 SLP320